Time;durP1;ratioP1;P1;durP2;ratioP2;P2;SDS_P1;SDS_P2;PMS_P1;PMS_P2;Temp;Humidity;BMP_temperature;BMP_pressure;BME280_temperature;BME280_humidity;BME280_pressure;Samples;Min_cycle;Max_cycle;Signal;HPM_P1;HPM_P2
2022/12/24 00:00:15;;;;;;;;;;;;;;;8.08;54.36;100386.94;7392687;19;19915;-59
2022/12/24 00:02:41;;;;;;;;;;;;;;;8.13;54.47;100388.63;7391869;19;19978;-59
2022/12/24 00:05:07;;;;;;;;;;;;;;;8.22;54.21;100399.44;7392247;19;19943;-59
2022/12/24 00:07:33;;;;;;;;;;;;;;;8.16;54.09;100394.22;7390157;19;19954;-59
2022/12/24 00:09:58;;;;;;;;;;;;;;;8.11;54.21;100391.72;7391579;19;20344;-59
2022/12/24 00:12:24;;;;;;;;;;;;;;;8.12;54.45;100387.84;7392554;19;20372;-59
2022/12/24 00:14:50;;;;;;;;;;;;;;;8.10;54.29;100387.41;7391129;19;19906;-59
2022/12/24 00:17:15;;;;;;;;;;;;;;;7.88;54.99;100379.59;7388848;19;19934;-59
2022/12/24 00:19:42;;;;;;;;;;;;;;;7.98;54.95;100382.72;7389531;19;20395;-59
2022/12/24 00:22:07;;;;;;;;;;;;;;;8.10;54.55;100376.53;7389925;19;19925;-59
2022/12/24 00:24:33;;;;;;;;;;;;;;;8.07;54.50;100377.19;7389749;19;19978;-59
2022/12/24 00:26:59;;;;;;;;;;;;;;;7.96;54.55;100378.72;7390131;19;19911;-59
2022/12/24 00:29:24;;;;;;;;;;;;;;;8.13;54.54;100386.72;7390898;19;20007;-59
2022/12/24 00:31:50;;;;;;;;;;;;;;;8.20;54.43;100401.69;7391395;19;20320;-59
2022/12/24 00:34:15;;;;;;;;;;;;;;;8.21;54.27;100393.19;7391395;19;19942;-59
2022/12/24 00:36:41;;;;;;;;;;;;;;;8.09;54.16;100391.22;7390217;19;19954;-59
2022/12/24 00:39:07;;;;;;;;;;;;;;;8.01;54.35;100391.31;7391710;19;19979;-60
2022/12/24 00:41:32;;;;;;;;;;;;;;;7.93;54.83;100390.25;7391896;19;19986;-59
2022/12/24 00:43:59;;;;;;;;;;;;;;;8.00;54.64;100389.72;7390173;19;20011;-59
2022/12/24 00:46:26;;;;;;;;;;;;;;;7.93;54.75;100391.06;7390138;19;19919;-59
2022/12/24 00:48:52;;;;;;;;;;;;;;;8.11;54.51;100397.16;7390849;19;19982;-60
2022/12/24 00:51:18;;;;;;;;;;;;;;;8.00;54.40;100395.97;7391264;19;20226;-60
2022/12/24 00:53:44;;;;;;;;;;;;;;;8.00;54.39;100404.13;7390835;19;20339;-59
2022/12/24 00:56:10;;;;;;;;;;;;;;;8.01;54.58;100408.41;7389975;19;19915;-59
2022/12/24 00:58:35;;;;;;;;;;;;;;;8.00;54.68;100412.28;7390494;19;19911;-59
2022/12/24 01:01:01;;;;;;;;;;;;;;;7.77;54.95;100422.69;7390858;19;19914;-60
2022/12/24 01:03:34;;;;;;;;;;;;;;;7.81;54.95;100409.22;7394912;19;19923;-60
2022/12/24 01:06:07;;;;;;;;;;;;;;;7.76;54.97;100419.19;7390570;19;19919;-60
2022/12/24 01:08:33;;;;;;;;;;;;;;;7.90;54.93;100424.34;7391116;19;19943;-60
2022/12/24 01:10:59;;;;;;;;;;;;;;;8.12;54.52;100425.91;7391416;19;20329;-60
2022/12/24 01:13:25;;;;;;;;;;;;;;;8.14;54.10;100433.72;7389378;19;19922;-59
2022/12/24 01:15:51;;;;;;;;;;;;;;;8.20;54.15;100426.97;7387628;19;19915;-60
2022/12/24 01:18:16;;;;;;;;;;;;;;;8.19;54.16;100430.81;7390724;19;19915;-59
2022/12/24 01:20:42;;;;;;;;;;;;;;;8.13;54.01;100434.84;7395162;19;19926;-58
2022/12/24 01:23:08;;;;;;;;;;;;;;;7.97;54.66;100440.13;7396999;19;19997;-58
2022/12/24 01:25:33;;;;;;;;;;;;;;;8.11;54.60;100448.81;7397215;19;19918;-58
2022/12/24 01:27:59;;;;;;;;;;;;;;;8.26;54.09;100452.00;7397685;19;20353;-58
2022/12/24 01:30:25;;;;;;;;;;;;;;;8.28;53.90;100458.72;7395373;19;19911;-58
2022/12/24 01:32:50;;;;;;;;;;;;;;;8.25;53.92;100461.31;7396974;19;19942;-58
2022/12/24 01:35:16;;;;;;;;;;;;;;;8.21;54.30;100460.38;7397080;19;19918;-58
2022/12/24 01:37:42;;;;;;;;;;;;;;;8.00;54.46;100454.94;7397622;19;19914;-59
2022/12/24 01:45:38;;;;;;;;;;;;;;;8.19;54.08;100462.66;7395340;19;19919;-58
2022/12/24 01:48:04;;;;;;;;;;;;;;;8.05;54.40;100469.16;7395004;19;19929;-58
2022/12/24 01:50:30;;;;;;;;;;;;;;;8.14;54.55;100464.41;7394213;19;19922;-57
2022/12/24 01:52:56;;;;;;;;;;;;;;;8.26;53.96;100463.69;7396043;19;20241;-57
2022/12/24 01:55:23;;;;;;;;;;;;;;;8.25;54.09;100461.31;7396288;19;20350;-58
2022/12/24 01:57:51;;;;;;;;;;;;;;;8.21;54.34;100457.66;7396898;19;19922;-58
2022/12/24 02:00:17;;;;;;;;;;;;;;;8.24;53.96;100457.78;7396316;19;20260;-58
2022/12/24 02:02:45;;;;;;;;;;;;;;;8.20;54.18;100464.22;7395796;19;19923;-58
2022/12/24 02:05:15;;;;;;;;;;;;;;;8.12;54.56;100466.69;7396526;19;19919;-58
2022/12/24 02:07:41;;;;;;;;;;;;;;;8.01;54.55;100465.50;7397298;19;19915;-58
2022/12/24 02:10:08;;;;;;;;;;;;;;;8.04;54.44;100464.81;7394643;19;19917;-58
2022/12/24 02:12:36;;;;;;;;;;;;;;;8.10;54.29;100460.78;7396740;19;19946;-58
2022/12/24 02:15:02;;;;;;;;;;;;;;;8.20;54.31;100462.31;7395864;19;19923;-58
2022/12/24 02:17:37;;;;;;;;;;;;;;;8.26;53.95;100471.06;7393694;19;19940;-58
2022/12/24 02:20:21;;;;;;;;;;;;;;;8.19;54.12;100468.09;7396025;19;20011;-58
2022/12/24 02:23:05;;;;;;;;;;;;;;;8.12;54.51;100466.69;7395741;19;19911;-57
2022/12/24 02:25:49;;;;;;;;;;;;;;;8.14;53.89;100479.94;7393172;19;19991;-58
2022/12/24 02:28:15;;;;;;;;;;;;;;;8.21;54.17;100476.69;7394182;19;20363;-58
2022/12/24 02:30:42;;;;;;;;;;;;;;;8.27;53.85;100480.81;7393578;19;19924;-58
2022/12/24 02:33:13;;;;;;;;;;;;;;;8.20;54.18;100486.78;7392774;19;19918;-58
2022/12/24 02:35:39;;;;;;;;;;;;;;;8.28;53.84;100488.63;7394763;19;19919;-59
2022/12/24 02:38:10;;;;;;;;;;;;;;;8.28;54.03;100491.34;7395313;19;19914;-58
2022/12/24 02:40:39;;;;;;;;;;;;;;;8.24;54.03;100487.69;7394878;19;19914;-60
2022/12/24 02:43:18;;;;;;;;;;;;;;;8.23;54.03;100502.44;7395088;19;19938;-59
2022/12/24 02:45:48;;;;;;;;;;;;;;;8.26;54.26;100495.53;7394233;19;20236;-59
2022/12/24 02:48:15;;;;;;;;;;;;;;;8.06;54.40;100497.91;7394996;19;20271;-59
2022/12/24 02:50:53;;;;;;;;;;;;;;;8.07;54.86;100504.16;7392017;19;19915;-59
2022/12/24 02:53:18;;;;;;;;;;;;;;;8.08;54.36;100498.38;7394629;19;19917;-59
2022/12/24 02:56:07;;;;;;;;;;;;;;;8.12;54.75;100512.91;7394233;19;19915;-59
2022/12/24 02:58:39;;;;;;;;;;;;;;;8.27;54.42;100513.44;7392780;19;19913;-59
2022/12/24 03:01:23;;;;;;;;;;;;;;;8.02;54.42;100507.84;7394084;19;19919;-59
2022/12/24 03:04:07;;;;;;;;;;;;;;;8.00;55.02;100512.03;7394048;19;19918;-59
2022/12/24 03:06:33;;;;;;;;;;;;;;;7.99;55.04;100513.94;7392932;19;19914;-59
2022/12/24 03:09:01;;;;;;;;;;;;;;;8.14;54.70;100520.72;7393737;19;19918;-58
2022/12/24 03:11:27;;;;;;;;;;;;;;;8.14;54.67;100518.00;7393805;19;19935;-58
2022/12/24 03:13:53;;;;;;;;;;;;;;;8.19;54.52;100520.53;7393734;19;19907;-58
2022/12/24 03:16:23;;;;;;;;;;;;;;;8.02;54.51;100521.44;7391850;19;20371;-59
2022/12/24 03:18:50;;;;;;;;;;;;;;;7.95;55.29;100534.78;7394268;19;19922;-58
2022/12/24 03:21:33;;;;;;;;;;;;;;;7.88;55.41;100538.00;7393610;19;19926;-58
2022/12/24 03:24:06;;;;;;;;;;;;;;;7.94;55.16;100546.75;7392418;19;19919;-58
2022/12/24 03:26:31;;;;;;;;;;;;;;;8.02;54.90;100536.97;7391050;19;19918;-58
2022/12/24 03:28:57;;;;;;;;;;;;;;;7.95;55.05;100538.28;7393093;19;20361;-58
2022/12/24 03:31:23;;;;;;;;;;;;;;;7.90;55.50;100543.13;7393203;19;19911;-59
2022/12/24 03:33:49;;;;;;;;;;;;;;;8.08;55.12;100541.88;7391736;19;19919;-58
2022/12/24 03:36:15;;;;;;;;;;;;;;;8.09;54.75;100535.31;7392233;19;19954;-59
2022/12/24 03:38:41;;;;;;;;;;;;;;;8.00;54.83;100531.88;7393192;19;19964;-59
2022/12/24 03:41:06;;;;;;;;;;;;;;;7.98;54.96;100539.56;7394131;19;19910;-58
2022/12/24 03:43:32;;;;;;;;;;;;;;;8.10;54.65;100547.78;7390989;19;20327;-58
2022/12/24 03:46:02;;;;;;;;;;;;;;;8.00;54.98;100563.66;7393083;19;19911;-58
2022/12/24 03:48:27;;;;;;;;;;;;;;;8.03;54.88;100569.25;7394139;19;19922;-59
2022/12/24 03:50:53;;;;;;;;;;;;;;;8.04;55.07;100557.25;7391632;19;19943;-59
2022/12/24 03:53:18;;;;;;;;;;;;;;;8.02;55.14;100556.00;7392497;19;20248;-59
2022/12/24 03:55:45;;;;;;;;;;;;;;;8.09;54.83;100551.63;7391704;19;19922;-59
2022/12/24 03:58:11;;;;;;;;;;;;;;;8.01;54.86;100552.47;7393337;19;19923;-59
2022/12/24 04:00:37;;;;;;;;;;;;;;;8.06;54.88;100552.28;7392770;19;19952;-59
2022/12/24 04:03:02;;;;;;;;;;;;;;;8.01;55.01;100549.75;7391792;19;20243;-59
2022/12/24 04:05:28;;;;;;;;;;;;;;;8.19;54.54;100563.25;7392347;19;20265;-60
2022/12/24 04:08:00;;;;;;;;;;;;;;;7.93;55.13;100562.28;7391189;19;19915;-60
2022/12/24 04:10:26;;;;;;;;;;;;;;;8.07;55.29;100559.31;7391207;19;19926;-59
2022/12/24 04:12:52;;;;;;;;;;;;;;;8.14;54.83;100565.00;7391524;19;19918;-60
2022/12/24 04:15:17;;;;;;;;;;;;;;;8.19;54.95;100574.13;7390076;19;20366;-60
2022/12/24 04:17:43;;;;;;;;;;;;;;;8.18;54.38;100570.59;7390154;19;19919;-60
2022/12/24 04:20:09;;;;;;;;;;;;;;;8.03;55.04;100571.97;7392222;19;19915;-60
2022/12/24 04:22:34;;;;;;;;;;;;;;;8.10;54.81;100572.25;7389784;19;20426;-59
2022/12/24 04:25:00;;;;;;;;;;;;;;;8.08;55.21;100579.13;7392101;19;20016;-59
2022/12/24 04:27:25;;;;;;;;;;;;;;;8.17;54.77;100574.44;7389790;19;19915;-59
2022/12/24 04:29:51;;;;;;;;;;;;;;;8.23;54.79;100588.63;7390761;19;19921;-59
2022/12/24 04:32:17;;;;;;;;;;;;;;;8.26;54.79;100585.25;7391061;19;20017;-58
2022/12/24 04:34:42;;;;;;;;;;;;;;;8.33;54.82;100589.06;7391619;19;19929;-58
2022/12/24 04:37:08;;;;;;;;;;;;;;;8.23;54.57;100594.88;7389175;19;19915;-58
2022/12/24 04:39:34;;;;;;;;;;;;;;;8.05;55.46;100598.84;7391592;19;19978;-58
2022/12/24 04:41:59;;;;;;;;;;;;;;;8.12;55.56;100599.88;7391233;19;19915;-59
2022/12/24 04:44:25;;;;;;;;;;;;;;;8.22;55.28;100603.38;7389457;19;20040;-59
2022/12/24 04:46:51;;;;;;;;;;;;;;;8.31;54.77;100606.81;7390122;19;19923;-59
2022/12/24 04:49:16;;;;;;;;;;;;;;;8.29;54.81;100611.78;7388842;19;19919;-59
2022/12/24 04:51:42;;;;;;;;;;;;;;;8.35;54.70;100610.50;7391752;19;19930;-60
2022/12/24 04:54:07;;;;;;;;;;;;;;;8.02;55.35;100616.59;7391016;19;19922;-60
2022/12/24 04:56:33;;;;;;;;;;;;;;;7.91;55.85;100618.06;7395751;19;19922;-60
2022/12/24 04:58:59;;;;;;;;;;;;;;;7.92;55.98;100622.41;7398628;19;19914;-60
2022/12/24 05:01:26;;;;;;;;;;;;;;;8.08;55.92;100614.47;7398673;19;20409;-60
2022/12/24 05:03:52;;;;;;;;;;;;;;;8.22;55.43;100616.97;7397282;19;19982;-60
2022/12/24 05:06:19;;;;;;;;;;;;;;;8.31;55.13;100607.63;7395607;19;20783;-60
2022/12/24 05:08:45;;;;;;;;;;;;;;;8.26;55.13;100609.72;7397596;19;19929;-60
2022/12/24 05:11:14;;;;;;;;;;;;;;;8.28;55.03;100612.91;7398693;19;19924;-60
2022/12/24 05:13:41;;;;;;;;;;;;;;;8.23;55.35;100613.09;7396609;19;20331;-60
2022/12/24 05:16:07;;;;;;;;;;;;;;;8.24;55.32;100617.41;7392019;19;19926;-58
2022/12/24 05:18:33;;;;;;;;;;;;;;;8.21;55.63;100628.94;7395876;19;19946;-59
2022/12/24 05:20:59;;;;;;;;;;;;;;;8.34;55.49;100619.78;7397867;19;20335;-58
2022/12/24 05:26:29;;;;;;;;;;;;;;;8.51;55.18;100616.94;7397138;19;19950;-58
2022/12/24 05:28:55;;;;;;;;;;;;;;;8.57;55.39;100620.25;7395228;19;19923;-58
2022/12/24 05:31:22;;;;;;;;;;;;;;;8.62;55.04;100622.78;7396204;19;19919;-58
2022/12/24 05:33:48;;;;;;;;;;;;;;;8.63;55.19;100632.53;7396468;19;20251;-61
2022/12/24 05:36:14;;;;;;;;;;;;;;;8.59;55.23;100628.88;7396683;19;19915;-59
2022/12/24 05:38:39;;;;;;;;;;;;;;;8.63;55.47;100632.53;7396980;19;19910;-60
2022/12/24 05:41:05;;;;;;;;;;;;;;;8.67;55.16;100629.94;7398077;19;19915;-59
2022/12/24 05:43:31;;;;;;;;;;;;;;;8.71;55.27;100628.97;7395441;19;19911;-57
2022/12/24 05:45:58;;;;;;;;;;;;;;;8.69;55.51;100641.28;7396415;19;19951;-59
2022/12/24 05:48:24;;;;;;;;;;;;;;;8.74;55.34;100643.81;7397308;19;19926;-58
2022/12/24 05:50:49;;;;;;;;;;;;;;;8.75;55.23;100647.31;7394960;19;20220;-59
2022/12/24 05:53:15;;;;;;;;;;;;;;;8.79;55.59;100659.16;7396203;19;19976;-58
2022/12/24 05:55:40;;;;;;;;;;;;;;;8.84;55.31;100662.44;7396939;19;19921;-58
2022/12/24 05:58:06;;;;;;;;;;;;;;;8.77;55.44;100659.47;7396398;19;19919;-59
2022/12/24 06:00:32;;;;;;;;;;;;;;;8.79;55.63;100670.81;7397114;19;20401;-59
2022/12/24 06:02:57;;;;;;;;;;;;;;;8.75;55.74;100664.47;7393975;19;19903;-58
2022/12/24 06:05:23;;;;;;;;;;;;;;;8.74;55.92;100662.88;7395494;19;19936;-59
2022/12/24 06:07:48;;;;;;;;;;;;;;;8.83;55.64;100660.06;7394186;19;19919;-59
2022/12/24 06:10:14;;;;;;;;;;;;;;;8.93;55.52;100661.59;7394501;19;19918;-57
2022/12/24 06:12:40;;;;;;;;;;;;;;;8.92;55.69;100674.41;7395365;19;20243;-58
2022/12/24 06:15:06;;;;;;;;;;;;;;;8.97;55.80;100674.22;7396601;19;19914;-57
2022/12/24 06:17:31;;;;;;;;;;;;;;;8.99;55.98;100673.88;7393287;19;19919;-58
2022/12/24 06:19:57;;;;;;;;;;;;;;;9.00;56.09;100670.00;7396095;19;19925;-58
2022/12/24 06:22:22;;;;;;;;;;;;;;;9.08;56.08;100671.84;7394504;19;20408;-58
2022/12/24 06:24:48;;;;;;;;;;;;;;;9.17;55.97;100678.03;7394715;19;19962;-58
2022/12/24 06:27:14;;;;;;;;;;;;;;;9.15;55.85;100680.31;7393934;19;19931;-58
2022/12/24 06:29:39;;;;;;;;;;;;;;;9.15;56.16;100683.03;7393178;19;19918;-57
2022/12/24 06:32:05;;;;;;;;;;;;;;;9.17;56.22;100682.69;7395082;19;19918;-57
2022/12/24 06:34:31;;;;;;;;;;;;;;;9.18;56.24;100697.88;7394113;19;19924;-57
2022/12/24 06:36:56;;;;;;;;;;;;;;;9.26;56.40;100700.53;7394003;19;19934;-58
2022/12/24 06:39:22;;;;;;;;;;;;;;;9.33;56.21;100699.19;7394527;19;19919;-57
2022/12/24 06:41:47;;;;;;;;;;;;;;;9.24;56.67;100694.63;7395184;19;19939;-57
2022/12/24 06:44:13;;;;;;;;;;;;;;;9.25;56.48;100709.06;7392159;19;19933;-57
2022/12/24 06:46:38;;;;;;;;;;;;;;;9.33;56.78;100704.66;7394003;19;19925;-57
2022/12/24 06:49:04;;;;;;;;;;;;;;;9.33;56.55;100705.44;7394097;19;19922;-58
2022/12/24 06:51:30;;;;;;;;;;;;;;;9.37;56.56;100709.09;7395245;19;20339;-57
2022/12/24 06:53:55;;;;;;;;;;;;;;;9.32;56.54;100720.19;7394106;19;19918;-58
2022/12/24 06:56:21;;;;;;;;;;;;;;;9.36;56.55;100709.44;7394350;19;19924;-58
2022/12/24 06:58:47;;;;;;;;;;;;;;;9.32;56.69;100714.75;7393204;19;20339;-58
2022/12/24 07:01:13;;;;;;;;;;;;;;;9.35;56.60;100724.16;7394427;19;19944;-58
2022/12/24 07:03:39;;;;;;;;;;;;;;;9.39;56.49;100730.56;7393459;19;19918;-58
2022/12/24 07:06:05;;;;;;;;;;;;;;;9.45;56.44;100734.66;7393940;19;20327;-58
2022/12/24 07:08:32;;;;;;;;;;;;;;;9.38;56.29;100750.75;7394170;19;19922;-57
2022/12/24 07:10:58;;;;;;;;;;;;;;;9.46;56.38;100753.38;7392331;19;19990;-57
2022/12/24 07:13:24;;;;;;;;;;;;;;;9.49;56.28;100762.81;7393813;19;20324;-57
2022/12/24 07:16:16;;;;;;;;;;;;;;;9.44;56.09;100765.75;7394332;19;19915;-56
2022/12/24 07:18:42;;;;;;;;;;;;;;;9.47;56.24;100776.00;7391348;19;20371;-57
2022/12/24 07:21:07;;;;;;;;;;;;;;;9.50;55.84;100783.50;7393794;19;19978;-57
2022/12/24 07:23:33;;;;;;;;;;;;;;;9.44;56.03;100776.66;7393087;19;19999;-58
2022/12/24 07:26:00;;;;;;;;;;;;;;;9.50;56.23;100785.41;7392880;19;20310;-57
2022/12/24 07:28:26;;;;;;;;;;;;;;;9.44;56.19;100785.63;7393917;19;19923;-57
2022/12/24 07:30:51;;;;;;;;;;;;;;;9.50;56.08;100791.69;7390049;19;19914;-58
2022/12/24 07:33:17;;;;;;;;;;;;;;;9.51;55.83;100787.00;7392325;19;20218;-57
2022/12/24 07:35:42;;;;;;;;;;;;;;;9.52;55.97;100788.63;7392822;19;19915;-57
2022/12/24 07:38:08;;;;;;;;;;;;;;;9.57;55.56;100791.13;7393451;19;19915;-57
2022/12/24 07:40:34;;;;;;;;;;;;;;;9.60;55.71;100794.00;7393325;19;19970;-57
2022/12/24 07:42:59;;;;;;;;;;;;;;;9.56;55.67;100795.78;7392781;19;19927;-56
2022/12/24 07:45:25;;;;;;;;;;;;;;;9.59;55.51;100799.78;7392969;19;19918;-57
2022/12/24 07:47:50;;;;;;;;;;;;;;;9.53;55.71;100803.81;7390420;19;19915;-57
2022/12/24 07:50:16;;;;;;;;;;;;;;;9.55;55.72;100799.66;7391410;19;19914;-56
2022/12/24 07:52:42;;;;;;;;;;;;;;;9.60;55.38;100802.19;7392398;19;19903;-57
2022/12/24 07:55:07;;;;;;;;;;;;;;;9.57;55.32;100818.38;7391883;19;19911;-57
2022/12/24 07:57:33;;;;;;;;;;;;;;;9.48;55.60;100815.72;7391670;19;19919;-58
2022/12/24 07:59:59;;;;;;;;;;;;;;;9.53;55.55;100828.34;7392842;19;20332;-59
2022/12/24 08:02:24;;;;;;;;;;;;;;;9.54;55.56;100827.22;7391833;19;19910;-58
2022/12/24 08:04:50;;;;;;;;;;;;;;;9.53;55.68;100834.59;7392222;19;19933;-56
2022/12/24 08:07:16;;;;;;;;;;;;;;;9.63;55.31;100833.41;7391912;19;20631;-56
2022/12/24 08:09:43;;;;;;;;;;;;;;;9.52;55.42;100833.00;7390926;19;19978;-57
2022/12/24 08:12:08;;;;;;;;;;;;;;;9.53;55.39;100842.75;7392554;19;20331;-56
2022/12/24 08:14:34;;;;;;;;;;;;;;;9.53;55.24;100845.47;7391955;19;20020;-57
2022/12/24 08:16:59;;;;;;;;;;;;;;;9.56;55.64;100854.94;7391108;19;19981;-57
2022/12/24 08:19:25;;;;;;;;;;;;;;;9.57;55.40;100862.00;7391863;19;19922;-57
2022/12/24 08:21:51;;;;;;;;;;;;;;;9.60;55.57;100859.41;7392022;19;19979;-57
2022/12/24 08:24:16;;;;;;;;;;;;;;;9.62;55.47;100859.09;7391783;19;19925;-57
2022/12/24 08:26:42;;;;;;;;;;;;;;;9.65;55.39;100861.16;7391257;19;19926;-58
2022/12/24 08:29:08;;;;;;;;;;;;;;;9.61;55.38;100869.16;7391023;19;19922;-57
2022/12/24 08:31:35;;;;;;;;;;;;;;;9.62;55.42;100878.94;7391208;19;20346;-58
2022/12/24 08:34:04;;;;;;;;;;;;;;;9.69;55.37;100874.91;7392556;19;19934;-58
2022/12/24 08:36:30;;;;;;;;;;;;;;;9.73;55.34;100881.28;7390418;19;19943;-57
2022/12/24 08:40:04;;;;;;;;;;;;;;;9.79;55.48;100885.41;6891145;19;9918612;-57
2022/12/24 08:42:30;;;;;;;;;;;;;;;9.73;55.50;100897.63;7427142;19;19925;-56
2022/12/24 08:44:55;;;;;;;;;;;;;;;9.64;55.68;100906.66;7426629;19;20311;-56
2022/12/24 08:47:21;;;;;;;;;;;;;;;9.54;55.55;100901.59;7425307;19;19915;-56
2022/12/24 08:49:47;;;;;;;;;;;;;;;9.55;55.89;100903.19;7428113;19;19982;-57
2022/12/24 08:52:12;;;;;;;;;;;;;;;9.57;55.76;100906.38;7427506;19;19910;-58
2022/12/24 08:56:07;;;;;;;25.33;5.65;;;;;;;9.55;55.41;100911.38;6892373;19;9940623;-58
2022/12/24 08:58:33;;;;;;;25.85;4.78;;;;;;;9.69;55.02;100913.84;7425454;19;20346;-56
2022/12/24 09:00:59;;;;;;;25.98;5.43;;;;;;;9.76;54.80;100921.50;7425491;19;20006;-57
2022/12/24 09:03:26;;;;;;;24.95;5.22;;;;;;;9.74;55.16;100926.50;7424262;19;20610;-57
2022/12/24 09:05:52;;;;;;;28.83;5.85;;;;;;;9.80;55.01;100933.31;7425221;19;20006;-57
2022/12/24 09:08:19;;;;;;;28.80;5.95;;;;;;;9.86;55.08;100934.72;7422847;19;19995;-57
2022/12/24 09:10:45;;;;;;;27.75;6.22;;;;;;;9.86;54.92;100934.72;7426709;19;20006;-57
2022/12/24 09:13:11;;;;;;;26.38;6.20;;;;;;;9.81;55.15;100937.66;7425859;19;20021;-58
2022/12/24 09:15:37;;;;;;;26.08;6.30;;;;;;;9.85;55.02;100937.78;7421619;19;20002;-58
2022/12/24 09:18:03;;;;;;;27.08;6.30;;;;;;;9.90;55.01;100940.31;7425116;19;19998;-58
2022/12/24 09:20:29;;;;;;;31.45;6.05;;;;;;;9.74;55.48;100943.63;7426837;19;20003;-56
2022/12/24 09:22:54;;;;;;;34.30;6.57;;;;;;;9.79;55.78;100953.53;7425677;19;20331;-56
2022/12/24 09:25:20;;;;;;;31.42;6.30;;;;;;;9.87;55.59;100947.22;7427203;19;20006;-57
2022/12/24 09:27:46;;;;;;;36.75;6.55;;;;;;;9.89;55.51;100955.88;7423753;19;19994;-57
2022/12/24 09:30:12;;;;;;;31.33;6.80;;;;;;;9.93;55.48;100962.25;7426475;19;19991;-58
2022/12/24 09:32:38;;;;;;;27.67;6.55;;;;;;;10.06;54.93;100965.03;7425546;19;20351;-58
2022/12/24 09:35:04;;;;;;;34.67;7.78;;;;;;;10.06;55.21;100965.03;7423604;19;19998;-57
2022/12/24 09:37:30;;;;;;;31.10;6.45;;;;;;;10.12;54.87;100980.09;7423806;19;19998;-58
2022/12/24 09:39:55;;;;;;;35.30;7.97;;;;;;;10.05;55.22;100982.53;7425458;19;20446;-58
2022/12/24 09:42:49;;;;;;;33.58;7.22;;;;;;;10.07;55.15;100985.72;7424538;19;19994;-58
2022/12/24 09:45:36;;;;;;;35.38;7.72;;;;;;;10.12;55.30;100994.50;7427874;19;20058;-57
2022/12/24 09:48:27;;;;;;;25.65;6.90;;;;;;;10.32;54.75;100990.16;7424291;19;19995;-57
2022/12/24 09:51:10;;;;;;;30.45;6.20;;;;;;;10.52;54.31;100988.53;7423276;19;20058;-57
2022/12/24 09:53:46;;;;;;;34.42;7.70;;;;;;;10.63;54.25;101005.28;7423758;19;19998;-58
2022/12/24 09:56:20;;;;;;;32.10;9.70;;;;;;;10.81;53.67;101010.59;7421813;19;20033;-57
2022/12/24 09:59:03;;;;;;;33.50;9.15;;;;;;;10.80;53.72;101017.19;7426064;19;20320;-58
2022/12/24 10:01:31;;;;;;;43.73;9.97;;;;;;;10.72;53.83;101011.47;7424658;19;20001;-58
2022/12/24 10:04:10;;;;;;;31.85;7.32;;;;;;;10.73;53.88;101004.84;7424323;19;20418;-58
2022/12/24 10:06:52;;;;;;;31.40;7.47;;;;;;;10.62;54.38;101009.16;7377172;19;20002;-57
2022/12/24 10:09:38;;;;;;;32.95;6.05;;;;;;;10.41;54.36;101008.41;7395588;19;20062;-56
2022/12/24 10:12:34;;;;;;;29.88;6.97;;;;;;;10.46;54.50;101016.38;7395851;19;20009;-58
2022/12/24 10:15:25;;;;;;;29.33;6.38;;;;;;;10.38;54.63;101018.03;7392568;19;20802;-57
2022/12/24 10:18:21;;;;;;;27.45;6.40;;;;;;;10.57;54.35;101028.47;7391365;19;20010;-58
2022/12/24 10:21:12;;;;;;;28.65;5.45;;;;;;;10.52;54.22;101020.50;7396323;19;20049;-58
2022/12/24 10:24:06;;;;;;;30.65;6.07;;;;;;;10.43;54.45;101022.50;7392540;19;19991;-58
2022/12/24 10:26:52;;;;;;;30.27;5.95;;;;;;;10.35;54.42;101021.44;7394730;19;20021;-56
2022/12/24 10:29:25;;;;;;;28.48;6.63;;;;;;;10.31;54.69;101028.69;7395629;19;20007;-59
2022/12/24 10:32:19;;;;;;;28.20;6.55;;;;;;;10.36;54.32;101029.28;7395897;19;19998;-58
2022/12/24 10:34:58;;;;;;;30.88;6.32;;;;;;;10.45;54.22;101028.41;7392900;19;20002;-59
2022/12/24 10:37:27;;;;;;;33.80;7.55;;;;;;;10.36;54.66;101040.19;7393346;19;20025;-57
2022/12/24 10:39:55;;;;;;;23.23;6.40;;;;;;;10.44;54.38;101040.47;7393506;19;19999;-58
2022/12/24 10:42:24;;;;;;;32.47;7.13;;;;;;;10.50;54.13;101044.56;7393069;19;20058;-58
2022/12/24 10:44:56;;;;;;;25.77;5.97;;;;;;;10.53;54.14;101033.00;7395196;19;19998;-59
2022/12/24 10:47:23;;;;;;;35.20;6.80;;;;;;;10.52;54.09;101037.66;7392366;19;19995;-58
2022/12/24 10:50:00;;;;;;;28.05;6.57;;;;;;;10.56;54.20;101051.44;7394828;19;20001;-60
2022/12/24 10:52:34;;;;;;;31.20;6.15;;;;;;;10.65;53.88;101052.16;7394090;19;20400;-58
2022/12/24 10:55:18;;;;;;;29.42;6.25;;;;;;;10.62;53.81;101055.56;7392850;19;19999;-59
2022/12/24 10:57:55;;;;;;;24.48;5.80;;;;;;;10.59;54.13;101055.44;7394251;19;20473;-59
2022/12/24 11:00:23;;;;;;;24.35;6.32;;;;;;;10.53;53.97;101052.09;7393846;19;20351;-57
2022/12/24 11:03:05;;;;;;;26.52;5.90;;;;;;;10.55;53.93;101058.84;7391745;19;20495;-57
2022/12/24 11:05:34;;;;;;;26.67;5.88;;;;;;;10.64;53.97;101049.78;7392658;19;20014;-58
2022/12/24 11:08:00;;;;;;;30.90;6.55;;;;;;;10.61;53.82;101048.50;7394304;19;19998;-58
2022/12/24 11:10:25;;;;;;;30.00;6.45;;;;;;;10.52;54.00;101042.34;7394752;19;20002;-57
2022/12/24 11:12:51;;;;;;;29.30;6.07;;;;;;;10.52;53.97;101054.03;7392325;19;20007;-58
2022/12/24 11:15:29;;;;;;;26.60;7.25;;;;;;;10.53;54.00;101052.09;7391566;19;19999;-57
2022/12/24 11:18:05;;;;;;;31.27;6.30;;;;;;;10.56;54.05;101056.91;7388020;19;20033;-57
2022/12/24 11:20:34;;;;;;;38.25;6.13;;;;;;;10.70;53.75;101060.16;7393765;19;20300;-57
2022/12/24 11:23:01;;;;;;;29.23;6.45;;;;;;;10.81;53.25;101067.94;7393126;19;20007;-57
2022/12/24 11:25:32;;;;;;;30.38;6.93;;;;;;;10.90;53.10;101069.47;7393487;19;20010;-57
2022/12/24 11:28:20;;;;;;;27.77;6.40;;;;;;;10.83;53.14;101058.25;7391588;19;20087;-58
2022/12/24 11:31:17;;;;;;;34.75;6.38;;;;;;;10.94;53.29;101058.66;7394441;19;19999;-57
2022/12/24 11:33:49;;;;;;;27.98;5.80;;;;;;;11.06;52.95;101053.22;7391134;19;20007;-58
2022/12/24 11:36:19;;;;;;;26.48;6.35;;;;;;;11.00;53.29;101054.56;7392797;19;20018;-58
2022/12/24 11:38:53;;;;;;;24.70;5.80;;;;;;;10.99;53.02;101044.78;7392151;19;20003;-58
2022/12/24 11:41:19;;;;;;;23.88;6.43;;;;;;;11.05;53.11;101048.09;7393485;19;20011;-58
2022/12/24 11:43:47;;;;;;;27.98;5.88;;;;;;;10.99;53.37;101047.50;7391478;19;20350;-57
2022/12/24 11:46:38;;;;;;;31.15;7.18;;;;;;;11.09;53.06;101038.88;7393122;19;20006;-58
2022/12/24 11:49:28;;;;;;;30.42;6.97;;;;;;;11.18;52.73;101043.44;7392507;19;19998;-56
2022/12/24 11:52:09;;;;;;;25.42;6.45;;;;;;;11.11;52.73;101058.44;7391910;19;20003;-58
2022/12/24 11:55:02;;;;;;;28.38;6.75;;;;;;;10.87;53.28;101055.66;7389242;19;19995;-57
2022/12/24 11:57:40;;;;;;;27.17;6.40;;;;;;;10.83;53.51;101060.22;7388062;19;20009;-56
2022/12/24 12:00:09;;;;;;;30.30;6.35;;;;;;;10.91;53.49;101053.88;7392767;19;20359;-57
2022/12/24 12:02:41;;;;;;;31.67;6.43;;;;;;;10.83;53.39;101061.00;7391802;19;20011;-57
2022/12/24 12:05:30;;;;;;;30.38;6.55;;;;;;;10.80;53.67;101058.94;7390272;19;20035;-58
2022/12/24 12:08:12;;;;;;;33.08;5.97;;;;;;;10.76;53.55;101062.69;7389548;19;20458;-57
2022/12/24 12:10:41;;;;;;;29.10;6.32;;;;;;;10.85;53.34;101074.31;7391393;19;20003;-58
2022/12/24 12:13:16;;;;;;;30.33;6.63;;;;;;;10.79;53.08;101062.81;7391538;19;20003;-57
2022/12/24 12:15:50;;;;;;;29.10;6.43;;;;;;;10.81;53.70;101076.13;7390244;19;20068;-56
2022/12/24 12:18:23;;;;;;;29.52;6.10;;;;;;;10.89;53.24;101077.97;7392804;19;19990;-56
2022/12/24 12:20:59;;;;;;;28.90;6.73;;;;;;;10.95;53.27;101079.34;7392775;19;19995;-56
2022/12/24 12:23:30;;;;;;;33.55;7.15;;;;;;;10.94;53.29;101088.69;7391705;19;19999;-56
2022/12/24 12:26:17;;;;;;;31.50;6.60;;;;;;;10.92;53.38;101090.94;7389982;19;20502;-57
2022/12/24 12:29:10;;;;;;;32.03;7.18;;;;;;;10.91;53.30;101097.56;7391305;19;20393;-57
2022/12/24 12:31:41;;;;;;;30.08;7.53;;;;;;;10.90;53.26;101095.94;7391300;19;20018;-57
2022/12/24 12:34:19;;;;;;;24.52;7.05;;;;;;;10.84;53.55;101092.63;7390406;19;20002;-57
2022/12/24 12:36:51;;;;;;;30.90;7.60;;;;;;;10.80;53.66;101093.63;7388330;19;20018;-57
2022/12/24 12:39:17;;;;;;;30.40;6.75;;;;;;;10.87;53.48;101096.63;7391656;19;20003;-56